Time;durP1;ratioP1;P1;durP2;ratioP2;P2;SDS_P1;SDS_P2;PMS_P1;PMS_P2;Temp;Humidity;BMP_temperature;BMP_pressure;BME280_temperature;BME280_humidity;BME280_pressure;Samples;Min_cycle;Max_cycle;Signal;HPM_P1;HPM_P2
2023/11/28 00:01:33;;;;;;;2.43;0.83;;;;;;;1.64;100.00;100705.03;5029647;28;20737;-73
2023/11/28 00:03:58;;;;;;;6.33;0.90;;;;;;;1.28;100.00;100631.69;5027537;28;20310;-72
2023/11/28 00:06:25;;;;;;;3.80;1.03;;;;;;;1.39;100.00;100662.41;5024164;28;20192;-72
2023/11/28 00:08:50;;;;;;;2.60;0.90;;;;;;;1.43;100.00;100684.91;5027288;28;20212;-72
2023/11/28 00:11:20;;;;;;;4.70;0.90;;;;;;;1.28;100.00;100662.56;5031256;28;20495;-72
2023/11/28 00:13:45;;;;;;;2.67;1.00;;;;;;;1.56;100.00;100721.59;5030633;28;20706;-72
2023/11/28 00:16:12;;;;;;;5.13;1.03;;;;;;;1.65;100.00;100757.78;5030043;28;20462;-72
2023/11/28 00:18:37;;;;;;;3.80;1.20;;;;;;;1.62;100.00;100770.44;5031659;28;20558;-72
2023/11/28 00:21:03;;;;;;;2.83;1.00;;;;;;;1.31;100.00;100707.22;5031634;28;20442;-72
2023/11/28 00:23:28;;;;;;;3.77;0.93;;;;;;;1.40;100.00;100747.81;5030034;28;20185;-73
2023/11/28 00:25:54;;;;;;;4.37;1.33;;;;;;;1.40;100.00;100764.50;5028730;28;20216;-73
2023/11/28 00:28:19;;;;;;;3.07;1.23;;;;;;;1.25;100.00;100735.03;5029735;28;20195;-73
2023/11/28 00:30:45;;;;;;;3.17;1.00;;;;;;;1.34;100.00;100757.13;5028700;28;20237;-73
2023/11/28 00:33:11;;;;;;;3.40;1.10;;;;;;;1.47;100.00;100788.53;5030697;28;20281;-73
2023/11/28 00:35:38;;;;;;;2.93;1.20;;;;;;;1.49;100.00;100828.91;5031384;28;20549;-73
2023/11/28 00:38:03;;;;;;;3.60;1.33;;;;;;;1.31;100.00;100820.84;5032434;28;20435;-73
2023/11/28 00:40:31;;;;;;;2.60;1.10;;;;;;;0.56;100.00;100730.69;5030762;28;20438;-73
2023/11/28 00:42:58;;;;;;;3.60;1.00;;;;;;;1.07;100.00;100814.16;5029393;28;20180;-73
2023/11/28 00:45:25;;;;;;;6.13;1.63;;;;;;;1.63;100.00;100894.56;5029060;28;20804;-73
2023/11/28 00:47:51;;;;;;;3.77;1.20;;;;;;;1.57;100.00;100918.94;5032434;28;20427;-73
2023/11/28 00:50:18;;;;;;;3.40;0.93;;;;;;;1.52;100.00;100906.13;5029503;28;20450;-73
2023/11/28 00:52:44;;;;;;;3.40;1.07;;;;;;;1.57;100.00;100946.19;5047066;28;20435;-73
2023/11/28 00:55:10;;;;;;;4.13;1.37;;;;;;;1.08;100.00;100849.34;5024890;28;20527;-73
2023/11/28 00:57:35;;;;;;;4.20;1.20;;;;;;;1.21;100.00;100886.88;5025568;28;20553;-73
2023/11/28 01:00:01;;;;;;;3.10;1.00;;;;;;;1.82;100.00;100978.34;5029844;28;20267;-73
2023/11/28 01:02:26;;;;;;;3.17;0.80;;;;;;;1.16;100.00;100852.13;5027420;28;20813;-73
2023/11/28 01:04:53;;;;;;;2.43;0.80;;;;;;;1.99;100.00;100968.88;5030387;28;20692;-73
2023/11/28 01:07:18;;;;;;;2.77;1.07;;;;;;;0.90;100.00;100810.38;5029025;28;20185;-72
2023/11/28 01:09:43;;;;;;;2.70;0.90;;;;;;;1.67;100.00;100963.88;5027405;28;20502;-72
2023/11/28 01:12:09;;;;;;;3.90;1.30;;;;;;;1.45;100.00;100926.16;5026563;28;20205;-72
2023/11/28 01:14:34;;;;;;;3.03;1.20;;;;;;;1.37;100.00;100926.00;5027679;28;20208;-72
2023/11/28 01:17:00;;;;;;;4.47;1.10;;;;;;;1.84;100.00;100984.34;5028312;28;20678;-73
2023/11/28 01:19:26;;;;;;;2.67;1.33;;;;;;;1.71;100.00;100971.41;5030471;28;20215;-73
2023/11/28 01:21:52;;;;;;;2.83;1.10;;;;;;;1.65;100.00;100944.66;5030470;28;20435;-73
2023/11/28 01:24:18;;;;;;;4.40;1.50;;;;;;;1.92;100.00;100970.44;5031061;28;20204;-73
2023/11/28 01:26:43;;;;;;;3.00;1.40;;;;;;;2.09;100.00;100945.91;5028084;28;20812;-73
2023/11/28 01:29:08;;;;;;;3.33;1.00;;;;;;;2.16;100.00;100985.88;5030167;28;20200;-73
2023/11/28 01:31:34;;;;;;;3.60;1.27;;;;;;;1.64;100.00;100876.91;5029554;28;20196;-73
2023/11/28 01:33:59;;;;;;;3.33;0.93;;;;;;;2.29;100.00;100981.13;5030940;28;20208;-72
2023/11/28 01:36:25;;;;;;;3.13;0.93;;;;;;;1.42;100.00;100857.72;5027995;28;20212;-72
2023/11/28 01:38:50;;;;;;;2.43;0.93;;;;;;;1.87;100.00;100940.91;5028489;28;20327;-72
2023/11/28 01:41:16;;;;;;;3.57;0.93;;;;;;;1.98;100.00;100946.91;5032513;28;20188;-72
2023/11/28 01:43:41;;;;;;;2.30;0.90;;;;;;;1.40;100.00;100887.88;5030724;28;20183;-72
2023/11/28 01:46:09;;;;;;;4.27;1.30;;;;;;;1.63;100.00;100912.25;5028558;28;20192;-72
2023/11/28 01:48:36;;;;;;;2.93;1.17;;;;;;;2.19;100.00;101002.31;5026620;28;20238;-73
2023/11/28 01:51:02;;;;;;;3.20;1.53;;;;;;;1.30;100.00;100887.84;5029038;28;20492;-73
2023/11/28 01:53:28;;;;;;;3.17;1.00;;;;;;;1.92;100.00;101000.38;5034454;28;20443;-73
2023/11/28 01:55:54;;;;;;;2.70;1.20;;;;;;;2.06;100.00;101032.69;5029781;28;20827;-73
2023/11/28 01:58:20;;;;;;;3.60;1.20;;;;;;;1.87;100.00;101013.16;5032679;28;20448;-73
2023/11/28 02:00:47;;;;;;;2.83;1.30;;;;;;;2.12;100.00;101043.53;5034575;28;20251;-73
2023/11/28 02:03:14;;;;;;;2.67;1.00;;;;;;;2.00;100.00;101024.31;5033574;28;20438;-73
2023/11/28 02:05:39;;;;;;;2.70;1.10;;;;;;;1.43;100.00;100980.94;5028377;28;20937;-73
2023/11/28 02:08:12;;;;;;;3.03;0.90;;;;;;;1.67;100.00;100972.63;5030162;28;20431;-73
2023/11/28 02:10:39;;;;;;;3.37;1.03;;;;;;;2.09;100.00;101046.47;5031760;28;20180;-72
2023/11/28 02:13:07;;;;;;;2.70;1.07;;;;;;;0.92;100.00;100876.25;5026328;28;20463;-72
2023/11/28 02:15:44;;;;;;;6.57;1.40;;;;;;;2.03;100.00;101061.09;5028596;28;20451;-72
2023/11/28 02:18:10;;;;;;;3.73;1.20;;;;;;;1.92;100.00;101026.81;5027951;28;20454;-72
2023/11/28 02:20:37;;;;;;;3.17;1.50;;;;;;;1.90;100.00;100993.53;5025453;28;20432;-73
2023/11/28 02:23:03;;;;;;;4.07;1.37;;;;;;;2.22;100.00;101078.78;5026521;28;20431;-73
2023/11/28 02:25:34;;;;;;;3.57;1.30;;;;;;;1.97;100.00;101016.66;5026631;28;20470;-73
2023/11/28 02:27:59;;;;;;;6.10;1.20;;;;;;;2.31;100.00;101078.91;5028426;28;20192;-73
2023/11/28 02:30:24;;;;;;;3.80;1.33;;;;;;;2.29;100.00;101078.25;5028346;28;20440;-72
2023/11/28 02:32:50;;;;;;;3.13;1.67;;;;;;;2.26;100.00;101051.06;5026561;28;20189;-72
2023/11/28 02:35:15;;;;;;;4.40;1.43;;;;;;;1.65;100.00;100931.44;5026781;28;20200;-72
2023/11/28 02:37:41;;;;;;;3.07;1.20;;;;;;;2.03;100.00;100996.75;5028997;28;20192;-72
2023/11/28 02:40:07;;;;;;;4.27;1.43;;;;;;;1.91;100.00;100976.69;5030956;28;20193;-73
2023/11/28 02:42:32;;;;;;;4.43;1.13;;;;;;;2.02;100.00;100995.91;5029552;28;20211;-73
2023/11/28 02:44:58;;;;;;;5.70;1.20;;;;;;;2.56;100.00;101061.63;5024338;28;20528;-73
2023/11/28 02:47:23;;;;;;;4.30;1.30;;;;;;;2.52;100.00;101081.41;5029289;28;20187;-73
2023/11/28 02:49:48;;;;;;;4.37;1.50;;;;;;;2.11;100.00;101009.28;5030367;28;20190;-73
2023/11/28 02:52:14;;;;;;;5.00;1.30;;;;;;;2.50;100.00;101060.38;5028810;28;20202;-73
2023/11/28 02:54:40;;;;;;;3.80;1.47;;;;;;;1.99;100.00;100988.25;5024679;28;20218;-73
2023/11/28 02:57:06;;;;;;;6.87;1.40;;;;;;;1.83;100.00;100947.47;5023453;28;20209;-73
2023/11/28 02:59:32;;;;;;;3.27;1.30;;;;;;;1.64;100.00;100895.41;5025006;28;20438;-73
2023/11/28 03:01:57;;;;;;;4.43;1.37;;;;;;;2.25;100.00;101000.91;5021682;28;20577;-73
2023/11/28 03:04:23;;;;;;;3.40;1.30;;;;;;;1.57;100.00;100866.88;5025484;28;20679;-73
2023/11/28 03:06:48;;;;;;;4.43;1.27;;;;;;;1.80;100.00;100917.69;5023163;28;20678;-73
2023/11/28 03:09:13;;;;;;;5.83;1.50;;;;;;;2.47;100.00;101003.25;5027588;28;20554;-72
2023/11/28 03:11:39;;;;;;;4.30;1.70;;;;;;;1.98;100.00;100907.22;5031141;28;20194;-73
2023/11/28 03:14:04;;;;;;;5.80;1.70;;;;;;;3.01;100.00;101037.13;5026322;28;20338;-72
2023/11/28 03:16:30;;;;;;;4.87;1.50;;;;;;;2.77;100.00;101032.31;5023131;28;20224;-73
2023/11/28 03:18:55;;;;;;;3.13;1.30;;;;;;;2.62;100.00;101029.28;5025499;28;20184;-73
2023/11/28 03:21:21;;;;;;;4.20;1.50;;;;;;;2.63;100.00;101009.75;5024019;28;20188;-73
2023/11/28 03:23:46;;;;;;;4.70;1.60;;;;;;;2.45;100.00;101038.78;5028726;28;20218;-73
2023/11/28 03:26:12;;;;;;;8.67;1.83;;;;;;;2.16;100.00;100994.66;5022676;28;20271;-73
2023/11/28 03:28:37;;;;;;;2.87;1.40;;;;;;;2.16;100.00;101013.16;5024767;28;20185;-73
2023/11/28 03:31:03;;;;;;;4.30;1.70;;;;;;;1.89;100.00;100966.25;5025334;28;20220;-73
2023/11/28 03:33:29;;;;;;;2.90;1.40;;;;;;;2.51;100.00;101085.88;5027703;28;20271;-73
2023/11/28 03:35:54;;;;;;;3.70;1.73;;;;;;;1.63;100.00;100971.25;5025733;28;20518;-73
2023/11/28 03:38:19;;;;;;;5.30;2.13;;;;;;;1.37;100.00;100954.25;5028231;28;20188;-73
2023/11/28 03:40:45;;;;;;;3.80;1.80;;;;;;;1.57;100.00;100948.84;5030300;28;20192;-73
2023/11/28 03:43:10;;;;;;;8.97;2.00;;;;;;;2.02;100.00;101077.91;5030169;28;20192;-72
2023/11/28 03:45:36;;;;;;;4.33;2.33;;;;;;;2.29;100.00;101092.31;5026272;28;20215;-74
2023/11/28 03:48:01;;;;;;;7.33;2.30;;;;;;;1.97;100.00;101085.44;5030793;28;20216;-73
2023/11/28 03:50:27;;;;;;;3.30;1.87;;;;;;;2.33;100.00;101140.50;5032295;28;20192;-73
2023/11/28 03:52:52;;;;;;;5.00;2.47;;;;;;;2.47;100.00;101143.59;5033438;28;20192;-73
2023/11/28 03:55:18;;;;;;;4.90;1.90;;;;;;;2.40;100.00;101125.72;5032394;28;20199;-73
2023/11/28 03:57:44;;;;;;;3.60;1.73;;;;;;;2.06;100.00;101067.91;5031270;28;20191;-73
2023/11/28 04:00:10;;;;;;;3.60;1.70;;;;;;;2.46;100.00;101133.16;5030538;28;20177;-72
2023/11/28 04:02:35;;;;;;;4.73;2.10;;;;;;;2.31;100.00;101074.47;5030841;28;20184;-73
2023/11/28 04:05:04;;;;;;;4.90;2.00;;;;;;;2.22;100.00;101105.25;5029499;28;20508;-73
2023/11/28 04:07:30;;;;;;;5.07;2.10;;;;;;;2.71;100.00;101144.97;5032411;28;20173;-72
2023/11/28 04:09:56;;;;;;;4.70;2.30;;;;;;;1.47;100.00;100970.94;5026463;28;20455;-72
2023/11/28 04:12:22;;;;;;;3.70;2.20;;;;;;;2.31;100.00;101153.88;5029395;28;20430;-72
2023/11/28 04:14:47;;;;;;;4.23;2.17;;;;;;;1.81;100.00;101082.47;5031320;28;20694;-73
2023/11/28 04:17:12;;;;;;;5.20;2.37;;;;;;;1.55;100.00;101045.13;5028425;28;20474;-73
2023/11/28 04:19:38;;;;;;;3.97;2.00;;;;;;;1.46;100.00;101045.94;5033705;28;20188;-73
2023/11/28 04:22:03;;;;;;;6.77;1.90;;;;;;;2.13;100.00;101140.47;5038544;28;20703;-73
2023/11/28 04:24:29;;;;;;;4.83;2.20;;;;;;;2.27;100.00;101216.00;5042446;28;20220;-73
2023/11/28 04:26:54;;;;;;;5.00;2.17;;;;;;;1.92;100.00;101123.88;5030237;28;20271;-73
2023/11/28 04:29:20;;;;;;;8.03;2.13;;;;;;;2.63;100.00;101237.53;5032122;28;20246;-73
2023/11/28 04:31:45;;;;;;;4.37;1.93;;;;;;;1.68;100.00;101100.38;5027652;28;20180;-72
2023/11/28 04:34:11;;;;;;;4.70;1.70;;;;;;;1.64;100.00;101102.47;5029677;28;20869;-73
2023/11/28 04:36:36;;;;;;;3.60;1.80;;;;;;;2.09;100.00;101176.13;5032361;28;20559;-73
2023/11/28 04:39:05;;;;;;;6.20;1.30;;;;;;;2.71;100.00;101243.81;5029689;28;20283;-73
2023/11/28 04:41:31;;;;;;;5.70;1.57;;;;;;;2.49;100.00;101213.13;5032216;28;20191;-73
2023/11/28 04:43:56;;;;;;;3.60;1.83;;;;;;;2.36;100.00;101148.16;5031789;28;20542;-73
2023/11/28 04:46:22;;;;;;;5.17;2.27;;;;;;;2.15;100.00;101166.81;5032485;28;20199;-73
2023/11/28 04:48:48;;;;;;;4.33;2.00;;;;;;;1.72;100.00;101085.94;5027125;28;20188;-73
2023/11/28 04:51:13;;;;;;;4.20;1.63;;;;;;;1.80;100.00;101110.75;5031328;28;20192;-73
2023/11/28 04:53:39;;;;;;;3.93;1.93;;;;;;;0.96;100.00;100953.44;5031162;28;20207;-73
2023/11/28 04:56:06;;;;;;;3.77;1.80;;;;;;;2.35;100.00;101191.50;5027337;28;20644;-73
2023/11/28 04:58:34;;;;;;;5.10;1.80;;;;;;;2.08;100.00;101185.03;5026375;28;20565;-73
2023/11/28 05:01:03;;;;;;;3.70;2.30;;;;;;;2.52;100.00;101216.47;5027692;28;20439;-73
2023/11/28 05:03:28;;;;;;;5.53;1.77;;;;;;;2.45;100.00;101211.72;5025874;28;20477;-73
2023/11/28 05:05:54;;;;;;;3.73;2.00;;;;;;;2.33;100.00;101191.63;5027988;28;20533;-73
2023/11/28 05:08:19;;;;;;;4.37;1.80;;;;;;;2.08;100.00;101132.09;5030011;28;20319;-73
2023/11/28 05:10:44;;;;;;;4.37;1.87;;;;;;;2.48;100.00;101223.84;5031502;28;20195;-73
2023/11/28 05:13:10;;;;;;;4.77;1.80;;;;;;;2.15;100.00;101151.78;5031856;28;20290;-73
2023/11/28 05:15:36;;;;;;;4.43;1.83;;;;;;;2.61;100.00;101205.06;5031045;28;20310;-72
2023/11/28 05:18:01;;;;;;;3.33;1.60;;;;;;;2.61;100.00;101192.66;5028482;28;20279;-72
2023/11/28 05:20:27;;;;;;;6.40;1.80;;;;;;;2.30;100.00;101172.56;5032376;28;20688;-73
2023/11/28 05:22:52;;;;;;;4.40;1.50;;;;;;;1.85;100.00;101077.75;5028797;28;20184;-73
2023/11/28 05:25:18;;;;;;;5.53;1.73;;;;;;;0.59;100.00;100854.50;5046207;23;20238;-73
2023/11/28 05:27:43;;;;;;;7.77;1.70;;;;;;;1.42;100.00;100976.66;5015381;28;20195;-73
2023/11/28 05:30:10;;;;;;;6.53;2.00;;;;;;;-0.12;100.00;100756.03;5030237;28;20270;-74
2023/11/28 05:32:35;;;;;;;6.13;1.70;;;;;;;0.92;100.00;100925.59;5013720;28;20208;-73
2023/11/28 05:35:01;;;;;;;9.27;1.93;;;;;;;1.16;100.00;100957.81;5031071;28;20446;-74
2023/11/28 05:37:26;;;;;;;4.53;1.67;;;;;;;1.08;100.00;100982.25;5032682;28;20204;-74
2023/11/28 05:39:52;;;;;;;12.93;2.30;;;;;;;2.58;100.00;101202.69;5032862;28;20215;-74
2023/11/28 05:42:17;;;;;;;5.90;2.13;;;;;;;-0.50;100.00;100715.31;5029943;28;20226;-73
2023/11/28 05:44:43;;;;;;;7.27;1.90;;;;;;;2.37;100.00;101152.47;5031912;28;20208;-73
2023/11/28 05:47:09;;;;;;;4.10;1.80;;;;;;;2.41;100.00;101169.78;5030168;28;20238;-74
2023/11/28 05:49:34;;;;;;;4.73;1.63;;;;;;;2.61;100.00;101213.84;5030845;28;20192;-73
2023/11/28 05:51:59;;;;;;;3.43;1.50;;;;;;;2.33;100.00;101199.56;5031720;28;20231;-74
2023/11/28 05:54:25;;;;;;;4.60;2.20;;;;;;;1.99;100.00;101114.41;5026766;28;20220;-74
2023/11/28 05:56:51;;;;;;;9.20;2.37;;;;;;;2.25;100.00;101192.31;5027754;28;20271;-73
2023/11/28 05:59:17;;;;;;;4.20;1.90;;;;;;;2.14;100.00;101202.16;5028004;28;20645;-73
2023/11/28 06:02:00;;;;;;;5.90;2.60;;;;;;;2.40;100.00;101245.72;5026306;28;20485;-73
2023/11/28 06:04:26;;;;;;;3.37;1.53;;;;;;;2.15;100.00;101180.03;5028027;28;20228;-73
2023/11/28 06:06:52;;;;;;;3.80;2.10;;;;;;;1.54;100.00;101096.34;5030988;28;20864;-73
2023/11/28 06:09:17;;;;;;;4.80;2.20;;;;;;;1.23;100.00;101082.28;5030987;28;20485;-73
2023/11/28 06:11:43;;;;;;;4.63;2.00;;;;;;;2.20;100.00;101220.19;5027838;28;20231;-73
2023/11/28 06:14:08;;;;;;;5.10;2.10;;;;;;;2.37;100.00;101237.19;5027340;28;20255;-74
2023/11/28 06:16:34;;;;;;;4.53;1.90;;;;;;;2.73;100.00;101259.59;5025760;28;25872;-73
2023/11/28 06:18:59;;;;;;;4.43;1.90;;;;;;;2.83;100.00;101267.53;5031221;28;20275;-74
2023/11/28 06:21:25;;;;;;;4.27;1.90;;;;;;;2.21;100.00;101230.63;5030138;28;20192;-74
2023/11/28 06:23:50;;;;;;;4.45;2.00;;;;;;;2.14;100.00;101253.31;5028597;28;20193;-73
2023/11/28 06:26:16;;;;;;;4.07;2.10;;;;;;;2.36;100.00;101280.53;5043868;28;20200;-73
2023/11/28 06:28:42;;;;;;;4.23;2.10;;;;;;;2.20;100.00;101294.28;5022774;28;20184;-74
2023/11/28 06:31:07;;;;;;;3.67;2.10;;;;;;;1.21;100.00;101145.00;5030554;28;20450;-73
2023/11/28 06:33:33;;;;;;;3.20;1.67;;;;;;;1.91;100.00;101284.41;5026620;28;20211;-73
2023/11/28 06:35:58;;;;;;;4.30;2.00;;;;;;;2.15;100.00;101307.06;5028042;28;20204;-74
2023/11/28 06:38:24;;;;;;;5.00;2.07;;;;;;;1.60;100.00;101224.53;5028779;28;20247;-74
2023/11/28 06:40:52;;;;;;;3.73;1.83;;;;;;;1.50;100.00;101258.81;5030812;28;20592;-73
2023/11/28 06:43:18;;;;;;;3.60;1.80;;;;;;;1.99;100.00;101345.41;5033559;28;20196;-73
2023/11/28 06:45:43;;;;;;;6.90;2.20;;;;;;;2.08;100.00;101361.47;5030633;28;20540;-74
2023/11/28 06:48:08;;;;;;;4.83;2.30;;;;;;;1.95;100.00;101328.13;5028382;28;20552;-74
2023/11/28 06:50:34;;;;;;;4.70;1.93;;;;;;;1.44;100.00;101269.91;5031573;28;20261;-73
2023/11/28 06:53:00;;;;;;;4.50;1.67;;;;;;;2.09;100.00;101371.13;5026772;28;20716;-73
2023/11/28 06:55:25;;;;;;;4.30;1.70;;;;;;;1.95;100.00;101383.69;5028279;28;20267;-74
2023/11/28 06:57:50;;;;;;;4.43;2.10;;;;;;;1.11;100.00;101258.56;5029299;28;20196;-74
2023/11/28 07:00:17;;;;;;;5.60;2.10;;;;;;;1.99;100.00;101400.16;5029305;28;20243;-73
2023/11/28 07:02:42;;;;;;;4.53;2.13;;;;;;;1.76;100.00;101388.84;5027574;28;20188;-73
2023/11/28 07:05:08;;;;;;;3.20;1.60;;;;;;;1.69;100.00;101401.75;5028360;28;20593;-73
2023/11/28 07:07:34;;;;;;;4.30;1.93;;;;;;;1.93;100.00;101424.47;5025560;28;20199;-73
2023/11/28 07:09:59;;;;;;;7.97;2.17;;;;;;;2.13;100.00;101391.03;5025905;28;20192;-74
2023/11/28 07:12:24;;;;;;;4.83;1.67;;;;;;;2.07;100.00;101391.56;5024635;28;20203;-73
2023/11/28 07:14:51;;;;;;;3.47;1.73;;;;;;;1.24;100.00;101269.75;5027657;28;20210;-73
2023/11/28 07:17:17;;;;;;;4.20;1.20;;;;;;;1.26;100.00;101262.56;5029617;28;20219;-74
2023/11/28 07:19:43;;;;;;;4.20;1.50;;;;;;;2.09;100.00;101316.38;5032638;28;20435;-73
2023/11/28 07:22:10;;;;;;;5.70;1.83;;;;;;;2.29;100.00;101341.13;5031625;28;20442;-73
2023/11/28 07:24:36;;;;;;;3.30;1.17;;;;;;;1.44;100.00;101220.53;5031694;28;21074;-73
2023/11/28 07:27:03;;;;;;;4.43;1.80;;;;;;;2.04;100.00;101285.00;5034046;28;20789;-73
2023/11/28 07:29:29;;;;;;;2.80;1.20;;;;;;;1.28;100.00;101220.16;5028937;28;20427;-74
2023/11/28 07:31:54;;;;;;;5.40;1.13;;;;;;;1.28;100.00;101183.16;5027485;28;20489;-73
2023/11/28 07:34:20;;;;;;;3.00;1.20;;;;;;;2.03;100.00;101288.63;5030553;28;20209;-74
2023/11/28 07:36:47;;;;;;;3.83;1.50;;;;;;;1.75;100.00;101231.13;5029715;28;20212;-73
2023/11/28 07:39:14;;;;;;;4.10;1.70;;;;;;;1.88;100.00;101278.53;5029696;28;21019;-74
2023/11/28 07:41:40;;;;;;;4.40;1.23;;;;;;;1.21;100.00;101188.09;5030121;28;20442;-73
2023/11/28 07:44:05;;;;;;;3.20;1.13;;;;;;;1.87;100.00;101256.53;5029575;28;20446;-73
2023/11/28 07:46:31;;;;;;;3.10;1.30;;;;;;;1.88;100.00;101241.47;5031820;28;20932;-74
2023/11/28 07:48:58;;;;;;;4.40;1.27;;;;;;;1.73;100.00;101241.00;5026888;28;20243;-74
2023/11/28 07:51:23;;;;;;;3.30;1.50;;;;;;;1.91;100.00;101268.53;5027660;28;20527;-73
2023/11/28 07:53:49;;;;;;;4.00;1.23;;;;;;;1.54;100.00;101210.84;5028034;28;20528;-74
2023/11/28 07:56:15;;;;;;;3.60;1.43;;;;;;;0.94;100.00;101108.56;5030217;28;20342;-73
2023/11/28 07:58:41;;;;;;;2.90;1.10;;;;;;;1.20;100.00;101136.22;5030627;28;20668;-73
2023/11/28 08:01:06;;;;;;;4.10;1.20;;;;;;;1.69;100.00;101192.00;5030956;28;20467;-73
2023/11/28 08:03:32;;;;;;;4.50;1.33;;;;;;;1.94;100.00;101225.06;5028959;28;20204;-73
2023/11/28 08:05:57;;;;;;;4.53;1.13;;;;;;;1.52;100.00;101177.56;5030004;28;20311;-73
2023/11/28 08:08:23;;;;;;;4.10;1.50;;;;;;;0.74;100.00;101005.44;5026675;28;20275;-73
2023/11/28 08:10:49;;;;;;;4.20;1.40;;;;;;;1.79;100.00;101156.69;5028407;28;20177;-73
2023/11/28 08:13:15;;;;;;;4.93;1.40;;;;;;;1.38;100.00;101085.41;5028086;28;20589;-73
2023/11/28 08:15:42;;;;;;;3.47;1.30;;;;;;;1.04;100.00;101030.19;5027581;28;20205;-73
2023/11/28 08:18:08;;;;;;;3.37;1.20;;;;;;;1.87;100.00;101155.16;5027877;28;20443;-73
2023/11/28 08:20:33;;;;;;;4.60;1.23;;;;;;;1.53;100.00;101113.16;5026114;28;20494;-73
2023/11/28 08:22:59;;;;;;;4.13;1.60;;;;;;;1.29;100.00;101063.25;5027075;28;20974;-73
2023/11/28 08:25:24;;;;;;;5.70;2.00;;;;;;;1.24;100.00;101066.28;5027217;28;20212;-73
2023/11/28 08:27:49;;;;;;;4.80;1.90;;;;;;;1.78;100.00;101152.34;5028703;28;20216;-73
2023/11/28 08:30:15;;;;;;;14.70;8.03;;;;;;;1.81;100.00;101148.59;5027112;28;20185;-73
2023/11/28 08:32:41;;;;;;;7.13;4.20;;;;;;;1.38;100.00;101074.84;5030259;28;20204;-73
2023/11/28 08:35:07;;;;;;;5.97;2.07;;;;;;;0.87;100.00;100992.03;5033210;28;20491;-73
2023/11/28 08:37:33;;;;;;;4.90;1.70;;;;;;;1.78;100.00;101146.22;5031665;28;20208;-73
2023/11/28 08:39:58;;;;;;;5.73;1.67;;;;;;;0.78;100.00;100982.25;5029010;28;20564;-73
2023/11/28 08:42:24;;;;;;;3.67;1.80;;;;;;;1.10;100.00;101062.22;5027363;28;20189;-73
2023/11/28 08:44:50;;;;;;;6.97;1.90;;;;;;;0.88;100.00;101031.50;5029593;28;20200;-73
2023/11/28 08:47:15;;;;;;;7.03;2.10;;;;;;;1.52;100.00;101140.56;5031765;28;20432;-73
2023/11/28 08:49:45;;;;;;;5.13;1.90;;;;;;;1.68;100.00;101166.50;5030378;28;20272;-73
2023/11/28 08:52:11;;;;;;;4.67;1.83;;;;;;;1.71;100.00;101188.25;5047478;28;20197;-73
2023/11/28 08:54:41;;;;;;;3.20;1.50;;;;;;;1.80;100.00;101178.69;5030936;28;20470;-73
2023/11/28 08:57:07;;;;;;;4.83;1.50;;;;;;;1.39;100.00;101110.84;5030696;28;20219;-73
2023/11/28 08:59:32;;;;;;;3.87;1.73;;;;;;;1.64;100.00;101130.72;5031795;28;20447;-74
2023/11/28 09:01:58;;;;;;;3.70;1.63;;;;;;;1.72;100.00;101133.56;5034882;28;20180;-73
2023/11/28 09:04:23;;;;;;;6.30;2.40;;;;;;;1.79;100.00;101153.19;5036036;28;20212;-74
2023/11/28 09:06:49;;;;;;;9.10;4.27;;;;;;;1.17;100.00;101048.47;5034761;28;20191;-73
2023/11/28 09:09:15;;;;;;;4.10;1.77;;;;;;;1.80;100.00;101145.13;5032097;28;20180;-73
2023/11/28 09:11:40;;;;;;;7.00;4.20;;;;;;;1.70;100.00;101138.13;5031061;28;20214;-73
2023/11/28 09:14:06;;;;;;;25.37;16.93;;;;;;;1.79;100.00;101121.44;5030062;28;20486;-74
2023/11/28 09:16:31;;;;;;;6.03;4.00;;;;;;;1.50;100.00;101071.13;5032627;28;20236;-74
2023/11/28 09:18:57;;;;;;;4.17;2.00;;;;;;;1.74;100.00;101118.41;5032877;28;20192;-73
2023/11/28 09:21:22;;;;;;;5.70;1.60;;;;;;;1.08;100.00;101000.75;5030522;28;20193;-74
2023/11/28 09:23:48;;;;;;;3.70;1.30;;;;;;;1.76;100.00;101108.50;5033406;28;20203;-74
2023/11/28 09:26:13;;;;;;;3.73;1.77;;;;;;;1.13;100.00;101003.81;5033268;28;20569;-73
2023/11/28 09:28:39;;;;;;;2.93;1.30;;;;;;;1.68;100.00;101072.16;5050358;28;20192;-73
2023/11/28 09:31:05;;;;;;;3.83;1.40;;;;;;;1.56;100.00;101071.44;5027311;28;20318;-74
2023/11/28 09:33:32;;;;;;;4.00;1.07;;;;;;;2.00;100.00;101118.75;5033751;28;20180;-73
2023/11/28 09:35:57;;;;;;;3.20;1.43;;;;;;;1.96;100.00;101102.28;5026519;28;20494;-73
2023/11/28 09:38:23;;;;;;;3.67;1.30;;;;;;;1.96;100.00;101098.81;5031169;28;20522;-74
2023/11/28 09:40:49;;;;;;;2.70;1.30;;;;;;;1.99;100.00;101109.94;5031050;28;20185;-73
2023/11/28 09:43:14;;;;;;;4.13;1.20;;;;;;;1.38;100.00;101012.22;5030063;28;20262;-73
2023/11/28 09:45:41;;;;;;;3.03;1.13;;;;;;;1.16;100.00;100980.72;5029351;28;20451;-73
2023/11/28 09:48:09;;;;;;;5.20;1.40;;;;;;;0.94;100.00;100989.69;5032621;28;20184;-73
2023/11/28 09:50:35;;;;;;;3.70;1.00;;;;;;;2.06;100.00;101112.91;5030896;28;20442;-73
2023/11/28 09:53:02;;;;;;;3.10;1.40;;;;;;;2.17;100.00;101111.91;5030734;28;20913;-74
2023/11/28 09:55:29;;;;;;;3.03;1.20;;;;;;;1.90;100.00;101075.53;5031239;28;20510;-73
2023/11/28 09:57:56;;;;;;;4.10;1.20;;;;;;;2.02;100.00;101117.59;5032475;28;20511;-73
2023/11/28 10:00:23;;;;;;;2.20;1.00;;;;;;;2.14;100.00;101110.41;5032804;28;20478;-73
2023/11/28 10:02:51;;;;;;;4.10;1.10;;;;;;;2.04;100.00;101093.66;5027623;28;20430;-73
2023/11/28 10:05:19;;;;;;;3.63;1.50;;;;;;;2.19;100.00;101112.63;5030705;28;20477;-73
2023/11/28 10:07:48;;;;;;;4.10;1.60;;;;;;;1.27;100.00;100986.78;5027121;28;20430;-73
2023/11/28 10:10:16;;;;;;;3.57;1.47;;;;;;;1.54;100.00;101024.94;5027789;28;21052;-73
2023/11/28 10:12:41;;;;;;;3.83;1.50;;;;;;;1.99;100.00;101086.13;5031815;28;20446;-73
2023/11/28 10:15:08;;;;;;;3.00;1.23;;;;;;;2.21;100.00;101114.16;5031570;28;20458;-73
2023/11/28 10:17:37;;;;;;;3.60;1.30;;;;;;;2.09;100.00;101090.63;5028192;28;20300;-73
2023/11/28 10:20:06;;;;;;;3.97;1.60;;;;;;;2.20;100.00;101101.09;5031352;28;20434;-73
2023/11/28 10:22:33;;;;;;;4.93;1.70;;;;;;;2.12;100.00;101103.56;5029175;28;20491;-73
2023/11/28 10:24:59;;;;;;;5.07;1.50;;;;;;;2.22;100.00;101078.78;5030849;28;20464;-73
2023/11/28 10:27:28;;;;;;;3.37;1.40;;;;;;;1.69;100.00;101006.88;5029146;28;20435;-73
2023/11/28 10:29:58;;;;;;;3.90;1.20;;;;;;;2.15;100.00;101087.41;5030614;28;20419;-73
2023/11/28 10:32:29;;;;;;;5.03;1.40;;;;;;;1.35;100.00;100954.34;5032605;28;20443;-74
2023/11/28 10:34:55;;;;;;;3.63;1.40;;;;;;;2.23;100.00;101114.03;5024554;28;20538;-73
2023/11/28 10:37:22;;;;;;;5.20;1.50;;;;;;;2.11;100.00;101120.41;5027941;28;20467;-73
2023/11/28 10:39:52;;;;;;;4.43;1.30;;;;;;;1.43;100.00;101015.31;5024730;28;20439;-72
2023/11/28 10:42:17;;;;;;;3.03;1.23;;;;;;;1.31;100.00;101000.53;5029190;28;20430;-73
2023/11/28 10:44:44;;;;;;;3.97;1.60;;;;;;;2.10;100.00;101113.44;5030275;28;20589;-73
2023/11/28 10:47:12;;;;;;;4.20;1.33;;;;;;;1.80;100.00;101073.72;5025502;28;20653;-72
2023/11/28 10:49:38;;;;;;;3.77;1.30;;;;;;;2.16;100.00;101089.91;5028178;28;20430;-73
2023/11/28 10:52:04;;;;;;;3.97;1.20;;;;;;;1.70;100.00;100975.00;5025470;28;20541;-74
2023/11/28 10:54:33;;;;;;;3.17;1.40;;;;;;;2.67;100.00;101101.22;5025438;28;20488;-73
2023/11/28 10:57:03;;;;;;;3.37;1.20;;;;;;;2.66;100.00;101076.53;5031700;28;20468;-73
2023/11/28 10:59:35;;;;;;;4.90;1.30;;;;;;;2.81;100.00;101090.19;5032499;28;20966;-73
2023/11/28 11:02:04;;;;;;;3.70;1.53;;;;;;;2.62;100.00;101034.59;5031386;28;20431;-73
2023/11/28 11:04:30;;;;;;;3.33;1.43;;;;;;;2.81;100.00;101049.63;5031173;28;20447;-74
2023/11/28 11:06:56;;;;;;;6.07;1.83;;;;;;;2.82;100.00;101069.81;5028372;28;20438;-74
2023/11/28 11:09:23;;;;;;;3.17;1.10;;;;;;;3.09;100.00;101047.84;5027590;28;20531;-74
2023/11/28 11:11:51;;;;;;;2.77;1.40;;;;;;;2.93;100.00;101029.91;5032180;28;20910;-73
2023/11/28 11:14:34;;;;;;;3.20;1.37;;;;;;;2.81;100.00;101037.19;5031225;28;20529;-73
2023/11/28 11:17:23;;;;;;;3.57;1.37;;;;;;;3.00;100.00;101038.94;5032616;28;20470;-74
2023/11/28 11:19:53;;;;;;;3.60;1.40;;;;;;;2.74;100.00;101025.50;5023019;28;20431;-73